sensor_id;sensor_type;location;lat;lon;timestamp;P1;durP1;ratioP1;P2;durP2;ratioP2
8247;SDS011;4164;49.844;8.830;2023-04-25T00:02:12;6.60;;;5.23;;
8247;SDS011;4164;49.844;8.830;2023-04-25T00:04:38;8.50;;;5.40;;
8247;SDS011;4164;49.844;8.830;2023-04-25T00:07:03;6.50;;;5.17;;
8247;SDS011;4164;49.844;8.830;2023-04-25T00:09:29;7.03;;;5.40;;
8247;SDS011;4164;49.844;8.830;2023-04-25T00:11:55;6.20;;;4.90;;
8247;SDS011;4164;49.844;8.830;2023-04-25T00:14:21;7.37;;;4.87;;
8247;SDS011;4164;49.844;8.830;2023-04-25T00:16:50;7.80;;;5.27;;
8247;SDS011;4164;49.844;8.830;2023-04-25T00:19:17;6.20;;;4.90;;
8247;SDS011;4164;49.844;8.830;2023-04-25T00:21:42;6.17;;;5.30;;
8247;SDS011;4164;49.844;8.830;2023-04-25T00:24:11;7.37;;;5.17;;
8247;SDS011;4164;49.844;8.830;2023-04-25T00:26:37;7.57;;;5.50;;
8247;SDS011;4164;49.844;8.830;2023-04-25T00:29:02;6.67;;;4.80;;
8247;SDS011;4164;49.844;8.830;2023-04-25T00:31:28;7.47;;;5.27;;
8247;SDS011;4164;49.844;8.830;2023-04-25T00:33:54;5.47;;;4.70;;
8247;SDS011;4164;49.844;8.830;2023-04-25T00:36:20;7.37;;;4.80;;
8247;SDS011;4164;49.844;8.830;2023-04-25T00:38:45;6.57;;;5.07;;
8247;SDS011;4164;49.844;8.830;2023-04-25T00:41:11;5.63;;;4.90;;
8247;SDS011;4164;49.844;8.830;2023-04-25T00:43:37;5.67;;;4.73;;
8247;SDS011;4164;49.844;8.830;2023-04-25T00:46:03;5.93;;;4.60;;
8247;SDS011;4164;49.844;8.830;2023-04-25T00:48:29;5.37;;;4.67;;
8247;SDS011;4164;49.844;8.830;2023-04-25T00:50:56;5.43;;;4.93;;
8247;SDS011;4164;49.844;8.830;2023-04-25T00:53:24;5.40;;;4.77;;
8247;SDS011;4164;49.844;8.830;2023-04-25T00:55:51;6.33;;;5.30;;
8247;SDS011;4164;49.844;8.830;2023-04-25T00:58:18;7.80;;;5.00;;
8247;SDS011;4164;49.844;8.830;2023-04-25T01:00:45;7.50;;;5.77;;
8247;SDS011;4164;49.844;8.830;2023-04-25T01:03:13;7.27;;;5.80;;
8247;SDS011;4164;49.844;8.830;2023-04-25T01:05:41;6.90;;;5.63;;
8247;SDS011;4164;49.844;8.830;2023-04-25T01:08:07;7.60;;;6.23;;
8247;SDS011;4164;49.844;8.830;2023-04-25T01:10:33;6.47;;;5.67;;
8247;SDS011;4164;49.844;8.830;2023-04-25T01:12:59;7.83;;;6.47;;
8247;SDS011;4164;49.844;8.830;2023-04-25T01:15:24;9.00;;;6.30;;
8247;SDS011;4164;49.844;8.830;2023-04-25T01:17:50;7.40;;;5.87;;
8247;SDS011;4164;49.844;8.830;2023-04-25T01:20:15;8.03;;;5.70;;
8247;SDS011;4164;49.844;8.830;2023-04-25T01:22:42;9.23;;;6.50;;
8247;SDS011;4164;49.844;8.830;2023-04-25T01:25:08;8.10;;;6.20;;
8247;SDS011;4164;49.844;8.830;2023-04-25T01:27:34;8.97;;;6.60;;
8247;SDS011;4164;49.844;8.830;2023-04-25T01:30:01;8.33;;;6.27;;
8247;SDS011;4164;49.844;8.830;2023-04-25T01:32:28;7.83;;;5.83;;
8247;SDS011;4164;49.844;8.830;2023-04-25T01:34:56;7.87;;;6.03;;
8247;SDS011;4164;49.844;8.830;2023-04-25T01:37:22;9.40;;;6.90;;
8247;SDS011;4164;49.844;8.830;2023-04-25T01:39:47;8.93;;;6.27;;
8247;SDS011;4164;49.844;8.830;2023-04-25T01:42:15;8.07;;;6.20;;
8247;SDS011;4164;49.844;8.830;2023-04-25T01:44:40;7.97;;;6.13;;
8247;SDS011;4164;49.844;8.830;2023-04-25T01:47:06;11.20;;;6.50;;
8247;SDS011;4164;49.844;8.830;2023-04-25T01:49:31;8.27;;;6.40;;
8247;SDS011;4164;49.844;8.830;2023-04-25T01:51:57;8.93;;;6.60;;
8247;SDS011;4164;49.844;8.830;2023-04-25T01:54:22;9.47;;;6.20;;
8247;SDS011;4164;49.844;8.830;2023-04-25T01:56:51;8.90;;;6.70;;
8247;SDS011;4164;49.844;8.830;2023-04-25T01:59:18;8.00;;;6.57;;
8247;SDS011;4164;49.844;8.830;2023-04-25T02:01:45;8.60;;;6.60;;
8247;SDS011;4164;49.844;8.830;2023-04-25T02:04:10;8.67;;;6.40;;
8247;SDS011;4164;49.844;8.830;2023-04-25T02:06:36;10.33;;;6.57;;
8247;SDS011;4164;49.844;8.830;2023-04-25T02:09:01;10.07;;;6.60;;
8247;SDS011;4164;49.844;8.830;2023-04-25T02:11:27;8.57;;;6.53;;
8247;SDS011;4164;49.844;8.830;2023-04-25T02:13:52;8.67;;;6.30;;
8247;SDS011;4164;49.844;8.830;2023-04-25T02:16:18;9.20;;;6.67;;
8247;SDS011;4164;49.844;8.830;2023-04-25T02:18:43;7.67;;;6.63;;
8247;SDS011;4164;49.844;8.830;2023-04-25T02:21:09;9.60;;;6.50;;
8247;SDS011;4164;49.844;8.830;2023-04-25T02:23:36;8.13;;;6.80;;
8247;SDS011;4164;49.844;8.830;2023-04-25T02:26:02;8.00;;;6.37;;
8247;SDS011;4164;49.844;8.830;2023-04-25T02:28:27;8.10;;;6.40;;
8247;SDS011;4164;49.844;8.830;2023-04-25T02:30:53;9.27;;;6.53;;
8247;SDS011;4164;49.844;8.830;2023-04-25T02:33:18;8.80;;;6.90;;
8247;SDS011;4164;49.844;8.830;2023-04-25T02:35:45;9.37;;;7.00;;
8247;SDS011;4164;49.844;8.830;2023-04-25T02:38:11;8.73;;;7.07;;
8247;SDS011;4164;49.844;8.830;2023-04-25T02:40:37;9.27;;;6.47;;
8247;SDS011;4164;49.844;8.830;2023-04-25T02:43:02;10.23;;;6.60;;
8247;SDS011;4164;49.844;8.830;2023-04-25T02:45:28;9.40;;;7.03;;
8247;SDS011;4164;49.844;8.830;2023-04-25T02:47:53;9.10;;;7.20;;
8247;SDS011;4164;49.844;8.830;2023-04-25T02:50:19;8.37;;;6.67;;
8247;SDS011;4164;49.844;8.830;2023-04-25T02:52:45;11.73;;;7.03;;
8247;SDS011;4164;49.844;8.830;2023-04-25T02:55:11;9.60;;;7.77;;
8247;SDS011;4164;49.844;8.830;2023-04-25T02:57:37;10.77;;;7.70;;
8247;SDS011;4164;49.844;8.830;2023-04-25T03:00:03;9.87;;;8.10;;
8247;SDS011;4164;49.844;8.830;2023-04-25T03:02:30;12.63;;;7.27;;
8247;SDS011;4164;49.844;8.830;2023-04-25T03:04:55;13.20;;;7.13;;
8247;SDS011;4164;49.844;8.830;2023-04-25T03:07:21;10.00;;;7.10;;
8247;SDS011;4164;49.844;8.830;2023-04-25T03:09:46;9.70;;;7.17;;
8247;SDS011;4164;49.844;8.830;2023-04-25T03:12:12;11.67;;;7.90;;
8247;SDS011;4164;49.844;8.830;2023-04-25T03:14:37;9.60;;;7.13;;
8247;SDS011;4164;49.844;8.830;2023-04-25T03:17:03;8.97;;;7.27;;
8247;SDS011;4164;49.844;8.830;2023-04-25T03:19:29;9.60;;;7.83;;
8247;SDS011;4164;49.844;8.830;2023-04-25T03:21:55;12.43;;;7.93;;
8247;SDS011;4164;49.844;8.830;2023-04-25T03:24:21;9.33;;;7.30;;
8247;SDS011;4164;49.844;8.830;2023-04-25T03:26:46;11.47;;;8.00;;
8247;SDS011;4164;49.844;8.830;2023-04-25T03:29:12;9.00;;;7.00;;
8247;SDS011;4164;49.844;8.830;2023-04-25T03:31:38;9.83;;;7.57;;
8247;SDS011;4164;49.844;8.830;2023-04-25T03:34:03;11.90;;;7.47;;
8247;SDS011;4164;49.844;8.830;2023-04-25T03:36:29;8.90;;;7.20;;
8247;SDS011;4164;49.844;8.830;2023-04-25T03:38:54;10.90;;;7.73;;
8247;SDS011;4164;49.844;8.830;2023-04-25T03:41:20;8.90;;;7.30;;
8247;SDS011;4164;49.844;8.830;2023-04-25T03:43:45;8.37;;;6.70;;
8247;SDS011;4164;49.844;8.830;2023-04-25T03:46:11;9.03;;;7.47;;
8247;SDS011;4164;49.844;8.830;2023-04-25T03:48:36;9.63;;;7.13;;
8247;SDS011;4164;49.844;8.830;2023-04-25T03:51:02;9.53;;;7.73;;
8247;SDS011;4164;49.844;8.830;2023-04-25T03:53:28;13.03;;;7.50;;
8247;SDS011;4164;49.844;8.830;2023-04-25T03:55:53;11.37;;;8.20;;
8247;SDS011;4164;49.844;8.830;2023-04-25T03:58:19;13.07;;;8.13;;
8247;SDS011;4164;49.844;8.830;2023-04-25T04:00:44;10.83;;;8.27;;
8247;SDS011;4164;49.844;8.830;2023-04-25T04:03:10;9.50;;;7.57;;
8247;SDS011;4164;49.844;8.830;2023-04-25T04:05:36;11.67;;;8.33;;
8247;SDS011;4164;49.844;8.830;2023-04-25T04:08:02;11.57;;;8.87;;
8247;SDS011;4164;49.844;8.830;2023-04-25T04:10:27;16.77;;;9.30;;
8247;SDS011;4164;49.844;8.830;2023-04-25T04:12:53;11.63;;;8.93;;
8247;SDS011;4164;49.844;8.830;2023-04-25T04:15:18;11.43;;;9.27;;
8247;SDS011;4164;49.844;8.830;2023-04-25T04:17:44;16.07;;;10.57;;
8247;SDS011;4164;49.844;8.830;2023-04-25T04:20:11;11.47;;;9.17;;
8247;SDS011;4164;49.844;8.830;2023-04-25T04:22:37;15.63;;;10.27;;
8247;SDS011;4164;49.844;8.830;2023-04-25T04:25:02;13.60;;;9.30;;
8247;SDS011;4164;49.844;8.830;2023-04-25T04:27:29;13.13;;;9.23;;
8247;SDS011;4164;49.844;8.830;2023-04-25T04:29:55;14.90;;;9.60;;
8247;SDS011;4164;49.844;8.830;2023-04-25T04:32:21;18.17;;;9.90;;
8247;SDS011;4164;49.844;8.830;2023-04-25T04:34:48;16.03;;;9.37;;
8247;SDS011;4164;49.844;8.830;2023-04-25T04:37:13;14.83;;;9.80;;
8247;SDS011;4164;49.844;8.830;2023-04-25T04:39:39;15.47;;;10.67;;
8247;SDS011;4164;49.844;8.830;2023-04-25T04:42:05;13.80;;;10.43;;
8247;SDS011;4164;49.844;8.830;2023-04-25T04:44:31;13.83;;;9.87;;
8247;SDS011;4164;49.844;8.830;2023-04-25T04:47:00;15.70;;;10.50;;
8247;SDS011;4164;49.844;8.830;2023-04-25T04:49:26;15.83;;;10.33;;
8247;SDS011;4164;49.844;8.830;2023-04-25T04:51:52;15.43;;;10.30;;
8247;SDS011;4164;49.844;8.830;2023-04-25T04:54:19;18.10;;;11.17;;
8247;SDS011;4164;49.844;8.830;2023-04-25T04:56:45;16.97;;;9.93;;
8247;SDS011;4164;49.844;8.830;2023-04-25T04:59:10;17.50;;;10.73;;
8247;SDS011;4164;49.844;8.830;2023-04-25T05:01:36;15.10;;;10.67;;
8247;SDS011;4164;49.844;8.830;2023-04-25T05:04:02;19.40;;;10.57;;
8247;SDS011;4164;49.844;8.830;2023-04-25T05:06:28;14.93;;;10.50;;
8247;SDS011;4164;49.844;8.830;2023-04-25T05:08:55;17.00;;;9.93;;
8247;SDS011;4164;49.844;8.830;2023-04-25T05:11:21;15.97;;;9.83;;
8247;SDS011;4164;49.844;8.830;2023-04-25T05:13:49;14.03;;;9.93;;
8247;SDS011;4164;49.844;8.830;2023-04-25T05:16:16;13.87;;;9.17;;
8247;SDS011;4164;49.844;8.830;2023-04-25T05:18:42;17.10;;;9.57;;
8247;SDS011;4164;49.844;8.830;2023-04-25T05:21:08;12.93;;;9.50;;
8247;SDS011;4164;49.844;8.830;2023-04-25T05:23:33;17.67;;;10.37;;
8247;SDS011;4164;49.844;8.830;2023-04-25T05:25:59;17.70;;;9.10;;
8247;SDS011;4164;49.844;8.830;2023-04-25T05:28:25;16.87;;;8.70;;
8247;SDS011;4164;49.844;8.830;2023-04-25T05:30:50;12.10;;;8.77;;
8247;SDS011;4164;49.844;8.830;2023-04-25T05:33:16;18.70;;;12.80;;
8247;SDS011;4164;49.844;8.830;2023-04-25T05:35:42;15.63;;;8.53;;
8247;SDS011;4164;49.844;8.830;2023-04-25T05:38:07;16.63;;;7.30;;
8247;SDS011;4164;49.844;8.830;2023-04-25T05:40:33;12.43;;;7.63;;
8247;SDS011;4164;49.844;8.830;2023-04-25T05:42:59;15.93;;;6.80;;
8247;SDS011;4164;49.844;8.830;2023-04-25T05:45:24;18.90;;;8.33;;
8247;SDS011;4164;49.844;8.830;2023-04-25T05:47:50;13.27;;;7.87;;
8247;SDS011;4164;49.844;8.830;2023-04-25T05:50:15;15.77;;;7.93;;
8247;SDS011;4164;49.844;8.830;2023-04-25T05:52:41;24.60;;;7.63;;
8247;SDS011;4164;49.844;8.830;2023-04-25T05:55:06;17.50;;;7.20;;
8247;SDS011;4164;49.844;8.830;2023-04-25T05:57:32;15.27;;;7.63;;
8247;SDS011;4164;49.844;8.830;2023-04-25T05:59:58;17.03;;;6.87;;
8247;SDS011;4164;49.844;8.830;2023-04-25T06:02:23;15.27;;;7.70;;
8247;SDS011;4164;49.844;8.830;2023-04-25T06:04:49;11.27;;;7.40;;
8247;SDS011;4164;49.844;8.830;2023-04-25T06:07:16;14.73;;;8.30;;
8247;SDS011;4164;49.844;8.830;2023-04-25T06:09:42;11.87;;;7.80;;
8247;SDS011;4164;49.844;8.830;2023-04-25T06:12:08;18.03;;;8.10;;
8247;SDS011;4164;49.844;8.830;2023-04-25T06:14:33;16.87;;;8.07;;
8247;SDS011;4164;49.844;8.830;2023-04-25T06:16:59;16.03;;;8.53;;
8247;SDS011;4164;49.844;8.830;2023-04-25T06:19:31;15.07;;;8.67;;
8247;SDS011;4164;49.844;8.830;2023-04-25T06:22:00;15.23;;;8.13;;
8247;SDS011;4164;49.844;8.830;2023-04-25T06:24:26;19.70;;;8.50;;
8247;SDS011;4164;49.844;8.830;2023-04-25T06:26:52;15.07;;;8.77;;
8247;SDS011;4164;49.844;8.830;2023-04-25T06:29:18;13.47;;;8.77;;
8247;SDS011;4164;49.844;8.830;2023-04-25T06:31:43;13.67;;;8.20;;
8247;SDS011;4164;49.844;8.830;2023-04-25T06:34:09;17.50;;;8.50;;
8247;SDS011;4164;49.844;8.830;2023-04-25T06:36:34;16.80;;;8.43;;
8247;SDS011;4164;49.844;8.830;2023-04-25T06:39:00;18.27;;;8.50;;
8247;SDS011;4164;49.844;8.830;2023-04-25T06:41:26;15.03;;;8.23;;
8247;SDS011;4164;49.844;8.830;2023-04-25T06:43:51;14.83;;;7.87;;
8247;SDS011;4164;49.844;8.830;2023-04-25T06:46:17;24.77;;;8.67;;
8247;SDS011;4164;49.844;8.830;2023-04-25T06:48:42;16.40;;;7.83;;
8247;SDS011;4164;49.844;8.830;2023-04-25T06:51:08;15.20;;;8.57;;
8247;SDS011;4164;49.844;8.830;2023-04-25T06:53:33;16.50;;;8.67;;
8247;SDS011;4164;49.844;8.830;2023-04-25T06:55:59;14.23;;;7.90;;
8247;SDS011;4164;49.844;8.830;2023-04-25T06:58:24;13.90;;;7.00;;
8247;SDS011;4164;49.844;8.830;2023-04-25T07:00:51;19.40;;;7.80;;
8247;SDS011;4164;49.844;8.830;2023-04-25T07:03:16;16.77;;;8.57;;
8247;SDS011;4164;49.844;8.830;2023-04-25T07:05:42;11.17;;;7.20;;
8247;SDS011;4164;49.844;8.830;2023-04-25T07:08:07;19.20;;;8.07;;
8247;SDS011;4164;49.844;8.830;2023-04-25T07:10:33;15.47;;;7.97;;
8247;SDS011;4164;49.844;8.830;2023-04-25T07:12:58;13.80;;;7.77;;
8247;SDS011;4164;49.844;8.830;2023-04-25T07:15:24;21.13;;;8.20;;
8247;SDS011;4164;49.844;8.830;2023-04-25T07:17:50;18.93;;;7.63;;
8247;SDS011;4164;49.844;8.830;2023-04-25T07:20:16;13.43;;;7.20;;
8247;SDS011;4164;49.844;8.830;2023-04-25T07:22:42;12.93;;;7.50;;
8247;SDS011;4164;49.844;8.830;2023-04-25T07:25:07;14.43;;;7.77;;
8247;SDS011;4164;49.844;8.830;2023-04-25T07:27:33;14.10;;;7.57;;
8247;SDS011;4164;49.844;8.830;2023-04-25T07:30:02;14.77;;;7.47;;
8247;SDS011;4164;49.844;8.830;2023-04-25T07:32:29;15.70;;;7.30;;
8247;SDS011;4164;49.844;8.830;2023-04-25T07:34:55;13.07;;;7.53;;
8247;SDS011;4164;49.844;8.830;2023-04-25T07:37:20;13.70;;;7.27;;
8247;SDS011;4164;49.844;8.830;2023-04-25T07:39:46;14.37;;;7.60;;
8247;SDS011;4164;49.844;8.830;2023-04-25T07:42:12;14.20;;;7.03;;
8247;SDS011;4164;49.844;8.830;2023-04-25T07:44:37;14.30;;;7.07;;
8247;SDS011;4164;49.844;8.830;2023-04-25T07:47:05;13.20;;;7.53;;
8247;SDS011;4164;49.844;8.830;2023-04-25T07:49:34;11.23;;;6.97;;
8247;SDS011;4164;49.844;8.830;2023-04-25T07:52:01;16.03;;;7.60;;
8247;SDS011;4164;49.844;8.830;2023-04-25T07:54:28;14.23;;;7.80;;
8247;SDS011;4164;49.844;8.830;2023-04-25T07:56:53;11.50;;;7.10;;
8247;SDS011;4164;49.844;8.830;2023-04-25T07:59:19;14.80;;;8.30;;
8247;SDS011;4164;49.844;8.830;2023-04-25T08:01:45;14.13;;;7.70;;
8247;SDS011;4164;49.844;8.830;2023-04-25T08:04:11;12.23;;;7.37;;
8247;SDS011;4164;49.844;8.830;2023-04-25T08:06:36;16.33;;;8.00;;
8247;SDS011;4164;49.844;8.830;2023-04-25T08:09:02;12.37;;;7.03;;
8247;SDS011;4164;49.844;8.830;2023-04-25T08:11:28;9.60;;;6.43;;
8247;SDS011;4164;49.844;8.830;2023-04-25T08:13:54;11.07;;;6.03;;
8247;SDS011;4164;49.844;8.830;2023-04-25T08:16:19;14.27;;;6.97;;
8247;SDS011;4164;49.844;8.830;2023-04-25T08:18:45;12.37;;;6.33;;
8247;SDS011;4164;49.844;8.830;2023-04-25T08:21:11;13.53;;;6.93;;
8247;SDS011;4164;49.844;8.830;2023-04-25T08:23:38;11.07;;;5.77;;
8247;SDS011;4164;49.844;8.830;2023-04-25T08:26:04;11.53;;;5.30;;
8247;SDS011;4164;49.844;8.830;2023-04-25T08:28:30;10.13;;;5.63;;
8247;SDS011;4164;49.844;8.830;2023-04-25T08:30:56;11.93;;;4.80;;
8247;SDS011;4164;49.844;8.830;2023-04-25T08:33:22;9.30;;;5.10;;
8247;SDS011;4164;49.844;8.830;2023-04-25T08:35:48;8.27;;;4.40;;
8247;SDS011;4164;49.844;8.830;2023-04-25T08:38:13;10.27;;;5.30;;
8247;SDS011;4164;49.844;8.830;2023-04-25T08:40:39;9.87;;;4.73;;
8247;SDS011;4164;49.844;8.830;2023-04-25T08:43:06;7.67;;;4.23;;
8247;SDS011;4164;49.844;8.830;2023-04-25T08:45:36;7.73;;;3.93;;
8247;SDS011;4164;49.844;8.830;2023-04-25T08:48:06;9.47;;;4.37;;
8247;SDS011;4164;49.844;8.830;2023-04-25T08:50:40;7.10;;;4.20;;
8247;SDS011;4164;49.844;8.830;2023-04-25T08:53:20;9.37;;;4.40;;
8247;SDS011;4164;49.844;8.830;2023-04-25T08:55:50;8.10;;;3.90;;
8247;SDS011;4164;49.844;8.830;2023-04-25T08:58:17;8.17;;;3.70;;
8247;SDS011;4164;49.844;8.830;2023-04-25T09:00:43;8.17;;;4.73;;
8247;SDS011;4164;49.844;8.830;2023-04-25T09:03:11;8.77;;;3.67;;
8247;SDS011;4164;49.844;8.830;2023-04-25T09:05:37;10.33;;;3.83;;
8247;SDS011;4164;49.844;8.830;2023-04-25T09:08:05;7.57;;;3.60;;
8247;SDS011;4164;49.844;8.830;2023-04-25T09:10:31;7.20;;;3.93;;
8247;SDS011;4164;49.844;8.830;2023-04-25T09:13:07;8.13;;;3.50;;
8247;SDS011;4164;49.844;8.830;2023-04-25T09:15:35;9.47;;;3.77;;
8247;SDS011;4164;49.844;8.830;2023-04-25T09:18:22;7.57;;;3.33;;
8247;SDS011;4164;49.844;8.830;2023-04-25T09:20:53;7.17;;;4.20;;
8247;SDS011;4164;49.844;8.830;2023-04-25T09:23:19;5.63;;;3.20;;
8247;SDS011;4164;49.844;8.830;2023-04-25T09:25:49;6.77;;;3.30;;
8247;SDS011;4164;49.844;8.830;2023-04-25T09:28:16;6.23;;;3.20;;
8247;SDS011;4164;49.844;8.830;2023-04-25T09:30:47;6.80;;;3.73;;
8247;SDS011;4164;49.844;8.830;2023-04-25T09:33:13;5.13;;;3.80;;
8247;SDS011;4164;49.844;8.830;2023-04-25T09:35:39;7.17;;;3.40;;
8247;SDS011;4164;49.844;8.830;2023-04-25T09:38:10;10.53;;;3.73;;
8247;SDS011;4164;49.844;8.830;2023-04-25T09:40:40;9.40;;;3.53;;
8247;SDS011;4164;49.844;8.830;2023-04-25T09:43:10;6.53;;;3.20;;
8247;SDS011;4164;49.844;8.830;2023-04-25T09:45:46;4.17;;;3.10;;
8247;SDS011;4164;49.844;8.830;2023-04-25T09:48:16;5.07;;;2.80;;
8247;SDS011;4164;49.844;8.830;2023-04-25T09:50:43;5.40;;;2.63;;
8247;SDS011;4164;49.844;8.830;2023-04-25T09:53:08;4.10;;;2.73;;
8247;SDS011;4164;49.844;8.830;2023-04-25T09:55:34;15.40;;;3.50;;
8247;SDS011;4164;49.844;8.830;2023-04-25T09:58:03;4.77;;;3.20;;
8247;SDS011;4164;49.844;8.830;2023-04-25T10:00:33;5.47;;;3.20;;
8247;SDS011;4164;49.844;8.830;2023-04-25T10:03:00;6.37;;;2.90;;
8247;SDS011;4164;49.844;8.830;2023-04-25T10:05:29;8.70;;;3.00;;
8247;SDS011;4164;49.844;8.830;2023-04-25T10:07:57;5.23;;;2.77;;
8247;SDS011;4164;49.844;8.830;2023-04-25T10:10:24;7.23;;;3.30;;
8247;SDS011;4164;49.844;8.830;2023-04-25T10:12:52;3.67;;;2.53;;
8247;SDS011;4164;49.844;8.830;2023-04-25T10:15:19;5.07;;;3.50;;
8247;SDS011;4164;49.844;8.830;2023-04-25T10:17:45;6.33;;;3.67;;
8247;SDS011;4164;49.844;8.830;2023-04-25T10:20:12;6.27;;;3.40;;
8247;SDS011;4164;49.844;8.830;2023-04-25T10:22:39;4.63;;;3.10;;
8247;SDS011;4164;49.844;8.830;2023-04-25T10:25:07;5.43;;;3.70;;
8247;SDS011;4164;49.844;8.830;2023-04-25T10:27:34;6.27;;;3.80;;
8247;SDS011;4164;49.844;8.830;2023-04-25T10:30:00;6.60;;;3.23;;
8247;SDS011;4164;49.844;8.830;2023-04-25T10:32:27;6.90;;;3.30;;
8247;SDS011;4164;49.844;8.830;2023-04-25T10:34:52;5.33;;;3.03;;
8247;SDS011;4164;49.844;8.830;2023-04-25T10:37:19;6.60;;;3.50;;
8247;SDS011;4164;49.844;8.830;2023-04-25T10:39:45;4.07;;;3.33;;
8247;SDS011;4164;49.844;8.830;2023-04-25T10:42:11;5.77;;;2.97;;
8247;SDS011;4164;49.844;8.830;2023-04-25T10:44:37;8.33;;;3.80;;
8247;SDS011;4164;49.844;8.830;2023-04-25T10:47:06;5.70;;;3.47;;
8247;SDS011;4164;49.844;8.830;2023-04-25T10:49:33;8.37;;;3.87;;
8247;SDS011;4164;49.844;8.830;2023-04-25T10:54:39;5.93;;;4.10;;
8247;SDS011;4164;49.844;8.830;2023-04-25T10:57:06;8.87;;;4.10;;
8247;SDS011;4164;49.844;8.830;2023-04-25T10:59:31;8.77;;;3.73;;
8247;SDS011;4164;49.844;8.830;2023-04-25T11:01:57;7.60;;;4.10;;
8247;SDS011;4164;49.844;8.830;2023-04-25T11:04:29;7.87;;;4.20;;
8247;SDS011;4164;49.844;8.830;2023-04-25T11:09:47;6.30;;;4.30;;
8247;SDS011;4164;49.844;8.830;2023-04-25T11:12:14;6.17;;;4.37;;
8247;SDS011;4164;49.844;8.830;2023-04-25T11:14:41;7.07;;;4.57;;
8247;SDS011;4164;49.844;8.830;2023-04-25T11:17:06;6.83;;;3.70;;
8247;SDS011;4164;49.844;8.830;2023-04-25T11:19:32;9.23;;;5.23;;
8247;SDS011;4164;49.844;8.830;2023-04-25T11:21:58;8.83;;;4.33;;
8247;SDS011;4164;49.844;8.830;2023-04-25T11:24:43;8.63;;;4.97;;
8247;SDS011;4164;49.844;8.830;2023-04-25T11:27:10;9.70;;;4.87;;
8247;SDS011;4164;49.844;8.830;2023-04-25T11:29:35;7.70;;;4.00;;
8247;SDS011;4164;49.844;8.830;2023-04-25T11:32:01;7.97;;;4.00;;
8247;SDS011;4164;49.844;8.830;2023-04-25T11:34:30;6.43;;;4.23;;
8247;SDS011;4164;49.844;8.830;2023-04-25T11:36:57;11.13;;;4.17;;
8247;SDS011;4164;49.844;8.830;2023-04-25T11:39:24;8.07;;;4.53;;
8247;SDS011;4164;49.844;8.830;2023-04-25T11:41:51;7.50;;;4.27;;
8247;SDS011;4164;49.844;8.830;2023-04-25T11:44:17;11.30;;;6.67;;
8247;SDS011;4164;49.844;8.830;2023-04-25T11:46:43;7.50;;;4.97;;
8247;SDS011;4164;49.844;8.830;2023-04-25T11:49:10;6.70;;;4.40;;
8247;SDS011;4164;49.844;8.830;2023-04-25T11:51:39;5.87;;;4.23;;
8247;SDS011;4164;49.844;8.830;2023-04-25T11:54:05;5.60;;;4.57;;
8247;SDS011;4164;49.844;8.830;2023-04-25T11:56:31;6.17;;;4.23;;
8247;SDS011;4164;49.844;8.830;2023-04-25T11:59:00;7.43;;;4.90;;
8247;SDS011;4164;49.844;8.830;2023-04-25T12:01:31;6.73;;;4.83;;
8247;SDS011;4164;49.844;8.830;2023-04-25T12:03:58;10.40;;;6.37;;
8247;SDS011;4164;49.844;8.830;2023-04-25T12:06:38;5.80;;;4.70;;
8247;SDS011;4164;49.844;8.830;2023-04-25T12:09:06;7.80;;;4.30;;
8247;SDS011;4164;49.844;8.830;2023-04-25T12:11:43;8.00;;;4.63;;
8247;SDS011;4164;49.844;8.830;2023-04-25T12:16:52;7.90;;;5.00;;
8247;SDS011;4164;49.844;8.830;2023-04-25T12:19:20;7.50;;;4.40;;
8247;SDS011;4164;49.844;8.830;2023-04-25T12:21:46;10.40;;;4.90;;
8247;SDS011;4164;49.844;8.830;2023-04-25T12:24:14;11.07;;;5.27;;
8247;SDS011;4164;49.844;8.830;2023-04-25T12:26:53;9.37;;;4.80;;
8247;SDS011;4164;49.844;8.830;2023-04-25T12:29:24;11.83;;;4.67;;
8247;SDS011;4164;49.844;8.830;2023-04-25T12:31:51;7.63;;;4.90;;
8247;SDS011;4164;49.844;8.830;2023-04-25T12:34:18;9.63;;;4.63;;
8247;SDS011;4164;49.844;8.830;2023-04-25T12:36:45;8.67;;;4.50;;
8247;SDS011;4164;49.844;8.830;2023-04-25T12:41:49;11.20;;;4.90;;
8247;SDS011;4164;49.844;8.830;2023-04-25T12:44:15;6.17;;;4.40;;
8247;SDS011;4164;49.844;8.830;2023-04-25T12:46:40;8.90;;;4.93;;
8247;SDS011;4164;49.844;8.830;2023-04-25T12:49:06;7.93;;;4.53;;
8247;SDS011;4164;49.844;8.830;2023-04-25T12:51:33;6.57;;;4.47;;
8247;SDS011;4164;49.844;8.830;2023-04-25T12:53:59;10.20;;;4.93;;
8247;SDS011;4164;49.844;8.830;2023-04-25T12:56:25;8.30;;;4.57;;
8247;SDS011;4164;49.844;8.830;2023-04-25T12:58:52;7.60;;;4.73;;
8247;SDS011;4164;49.844;8.830;2023-04-25T13:01:18;9.60;;;4.43;;
8247;SDS011;4164;49.844;8.830;2023-04-25T13:03:44;8.97;;;3.83;;
8247;SDS011;4164;49.844;8.830;2023-04-25T13:06:10;7.43;;;3.87;;
8247;SDS011;4164;49.844;8.830;2023-04-25T13:08:36;8.23;;;4.67;;
8247;SDS011;4164;49.844;8.830;2023-04-25T13:11:03;9.63;;;4.03;;
8247;SDS011;4164;49.844;8.830;2023-04-25T13:13:29;8.83;;;3.80;;
8247;SDS011;4164;49.844;8.830;2023-04-25T13:15:56;7.57;;;4.20;;
8247;SDS011;4164;49.844;8.830;2023-04-25T13:18:22;9.53;;;4.00;;
8247;SDS011;4164;49.844;8.830;2023-04-25T13:20:51;7.83;;;4.40;;
8247;SDS011;4164;49.844;8.830;2023-04-25T13:23:17;8.80;;;3.93;;
8247;SDS011;4164;49.844;8.830;2023-04-25T13:25:43;7.40;;;3.90;;
8247;SDS011;4164;49.844;8.830;2023-04-25T13:28:08;8.20;;;3.83;;
8247;SDS011;4164;49.844;8.830;2023-04-25T13:30:34;9.13;;;4.30;;
8247;SDS011;4164;49.844;8.830;2023-04-25T13:32:59;9.93;;;3.77;;
8247;SDS011;4164;49.844;8.830;2023-04-25T13:35:28;17.67;;;4.33;;
8247;SDS011;4164;49.844;8.830;2023-04-25T13:37:55;10.57;;;3.90;;
8247;SDS011;4164;49.844;8.830;2023-04-25T13:40:20;7.83;;;4.23;;
8247;SDS011;4164;49.844;8.830;2023-04-25T13:42:46;25.30;;;5.77;;
8247;SDS011;4164;49.844;8.830;2023-04-25T13:45:12;9.73;;;3.77;;
8247;SDS011;4164;49.844;8.830;2023-04-25T13:47:37;6.70;;;3.77;;
8247;SDS011;4164;49.844;8.830;2023-04-25T13:50:03;10.23;;;3.90;;
8247;SDS011;4164;49.844;8.830;2023-04-25T13:52:32;9.30;;;3.77;;
8247;SDS011;4164;49.844;8.830;2023-04-25T13:54:58;9.47;;;3.77;;
8247;SDS011;4164;49.844;8.830;2023-04-25T13:57:24;6.43;;;3.70;;
8247;SDS011;4164;49.844;8.830;2023-04-25T13:59:50;5.33;;;3.50;;
8247;SDS011;4164;49.844;8.830;2023-04-25T14:02:17;10.17;;;4.10;;
8247;SDS011;4164;49.844;8.830;2023-04-25T14:04:42;10.23;;;4.17;;
8247;SDS011;4164;49.844;8.830;2023-04-25T14:07:08;8.67;;;3.70;;
8247;SDS011;4164;49.844;8.830;2023-04-25T14:09:35;9.43;;;4.20;;
8247;SDS011;4164;49.844;8.830;2023-04-25T14:12:01;9.80;;;3.50;;
8247;SDS011;4164;49.844;8.830;2023-04-25T14:14:27;7.20;;;3.50;;
8247;SDS011;4164;49.844;8.830;2023-04-25T14:16:53;3.93;;;3.10;;
8247;SDS011;4164;49.844;8.830;2023-04-25T14:19:19;5.57;;;3.50;;
8247;SDS011;4164;49.844;8.830;2023-04-25T14:21:45;6.97;;;3.17;;
8247;SDS011;4164;49.844;8.830;2023-04-25T14:24:11;10.13;;;3.90;;
8247;SDS011;4164;49.844;8.830;2023-04-25T14:26:37;4.97;;;2.90;;
8247;SDS011;4164;49.844;8.830;2023-04-25T14:29:04;6.23;;;3.27;;
8247;SDS011;4164;49.844;8.830;2023-04-25T14:31:33;7.43;;;3.13;;
8247;SDS011;4164;49.844;8.830;2023-04-25T14:34:00;8.47;;;4.07;;
8247;SDS011;4164;49.844;8.830;2023-04-25T14:36:27;14.50;;;3.90;;
8247;SDS011;4164;49.844;8.830;2023-04-25T14:38:53;5.80;;;2.90;;
8247;SDS011;4164;49.844;8.830;2023-04-25T14:41:19;5.60;;;3.30;;
8247;SDS011;4164;49.844;8.830;2023-04-25T14:43:45;8.33;;;3.33;;
8247;SDS011;4164;49.844;8.830;2023-04-25T14:46:10;3.57;;;3.13;;
8247;SDS011;4164;49.844;8.830;2023-04-25T14:48:36;7.03;;;3.00;;
8247;SDS011;4164;49.844;8.830;2023-04-25T14:51:02;6.73;;;3.40;;
8247;SDS011;4164;49.844;8.830;2023-04-25T14:53:28;6.47;;;3.80;;
8247;SDS011;4164;49.844;8.830;2023-04-25T14:55:54;6.43;;;3.40;;
8247;SDS011;4164;49.844;8.830;2023-04-25T14:58:20;8.47;;;3.90;;
8247;SDS011;4164;49.844;8.830;2023-04-25T15:00:46;8.00;;;3.33;;
8247;SDS011;4164;49.844;8.830;2023-04-25T15:03:12;7.53;;;3.53;;
8247;SDS011;4164;49.844;8.830;2023-04-25T15:05:38;3.70;;;2.73;;
8247;SDS011;4164;49.844;8.830;2023-04-25T15:08:05;6.87;;;3.63;;
8247;SDS011;4164;49.844;8.830;2023-04-25T15:10:30;5.53;;;2.97;;
8247;SDS011;4164;49.844;8.830;2023-04-25T15:12:56;6.63;;;3.10;;
8247;SDS011;4164;49.844;8.830;2023-04-25T15:15:22;6.57;;;3.47;;
8247;SDS011;4164;49.844;8.830;2023-04-25T15:17:48;6.40;;;3.03;;